Time;durP1;ratioP1;P1;durP2;ratioP2;P2;SDS_P1;SDS_P2;PMS_P1;PMS_P2;Temp;Humidity;BMP_temperature;BMP_pressure;BME280_temperature;BME280_humidity;BME280_pressure;Samples;Min_cycle;Max_cycle;Signal;HPM_P1;HPM_P2
2023/12/28 00:01:33;;;;;;;30.38;19.10;;;103.30;2227.20;;;;;;5054292;28;20344;-57
2023/12/28 00:03:59;;;;;;;34.42;22.63;;;103.30;2227.20;;;;;;5073124;28;20394;-69
2023/12/28 00:06:24;;;;;;;48.45;27.75;;;128.10;2252.80;;;;;;5079403;28;20031;-54
2023/12/28 00:08:50;;;;;;;42.55;25.27;;;103.00;2227.20;;;;;;5075160;28;20029;-56
2023/12/28 00:11:16;;;;;;;65.18;41.70;;;102.90;2227.20;;;;;;5078523;28;20029;-56
2023/12/28 00:13:42;;;;;;;40.67;25.13;;;102.80;2227.20;;;;;;5083116;28;20115;-53
2023/12/28 00:16:08;;;;;;;33.40;20.95;;;102.80;2227.20;;;;;;5088425;28;20051;-56
2023/12/28 00:18:33;;;;;;;30.45;18.60;;;102.70;2227.20;;;;;;5087149;28;20081;-72
2023/12/28 00:20:59;;;;;;;25.40;16.38;;;102.60;2227.20;;;;;;5088179;28;20055;-53
2023/12/28 00:23:25;;;;;;;27.48;16.42;;;102.50;2227.20;;;;;;5086034;28;20032;-53
2023/12/28 00:25:50;;;;;;;24.02;15.13;;;102.60;2227.20;;;;;;5087371;28;20367;-53
2023/12/28 00:28:16;;;;;;;23.02;15.07;;;102.60;2227.20;;;;;;5085878;28;20025;-53
2023/12/28 00:30:42;;;;;;;22.92;14.85;;;102.70;2227.20;;;;;;5086839;28;20115;-53
2023/12/28 00:33:08;;;;;;;21.30;13.48;;;102.70;2227.20;;;;;;5085090;28;20518;-63
2023/12/28 00:35:34;;;;;;;18.70;11.95;;;102.70;2227.20;;;;;;5086567;28;20028;-54
2023/12/28 00:38:00;;;;;;;21.08;14.25;;;102.80;2227.20;;;;;;5083731;28;20051;-55
2023/12/28 00:40:25;;;;;;;19.38;12.80;;;103.00;2227.20;;;;;;5086662;28;20039;-53
2023/12/28 00:42:51;;;;;;;26.98;17.55;;;103.10;2227.20;;;;;;5082920;28;20429;-54
2023/12/28 00:45:17;;;;;;;24.08;14.93;;;103.00;2227.20;;;;;;5085678;28;20035;-54
2023/12/28 00:47:43;;;;;;;26.83;14.48;;;103.10;2227.20;;;;;;5068786;28;20029;-53
2023/12/28 00:50:14;;;;;;;30.70;18.25;;;103.20;2227.20;;;;;;5085843;28;20119;-72
2023/12/28 00:52:40;;;;;;;24.38;20.15;;;103.10;2227.20;;;;;;5081613;28;20036;-54
2023/12/28 00:55:07;;;;;;;29.95;17.13;;;103.30;2227.20;;;;;;5084873;28;20024;-70
2023/12/28 00:57:33;;;;;;;23.42;15.38;;;128.00;2252.80;;;;;;5080366;28;20045;-61
2023/12/28 00:59:59;;;;;;;21.65;13.88;;;128.00;2252.80;;;;;;5083141;28;20574;-57
2023/12/28 01:02:25;;;;;;;40.05;32.63;;;128.00;2252.80;;;;;;5079245;28;20035;-56
2023/12/28 01:04:51;;;;;;;26.40;15.52;;;128.10;2252.80;;;;;;5083433;28;20032;-53
2023/12/28 01:07:17;;;;;;;45.67;36.92;;;128.00;2252.80;;;;;;5082249;28;20036;-53
2023/12/28 01:09:42;;;;;;;22.48;15.10;;;128.00;2252.80;;;;;;5085493;28;20074;-69
2023/12/28 01:12:08;;;;;;;28.20;21.45;;;128.00;2252.80;;;;;;5073925;28;20040;-71
2023/12/28 01:14:34;;;;;;;16.92;12.60;;;128.00;2252.80;;;;;;5091521;28;20032;-71
2023/12/28 01:17:00;;;;;;;24.77;17.40;;;103.20;2227.20;;;;;;5088525;28;20382;-54
2023/12/28 01:19:25;;;;;;;24.30;18.13;;;103.20;2227.20;;;;;;5072069;28;20119;-54
2023/12/28 01:21:51;;;;;;;25.88;19.15;;;103.20;2227.20;;;;;;5071722;28;20016;-54
2023/12/28 01:24:17;;;;;;;34.50;18.27;;;103.10;2227.20;;;;;;5072100;28;20029;-70
2023/12/28 01:26:43;;;;;;;28.63;17.45;;;103.10;2227.20;;;;;;5071707;28;20082;-53
2023/12/28 01:29:10;;;;;;;17.98;12.23;;;103.10;2227.20;;;;;;5071435;28;20025;-69
2023/12/28 01:31:36;;;;;;;24.13;15.00;;;103.10;2227.20;;;;;;5080549;28;20025;-54
2023/12/28 01:34:02;;;;;;;26.35;16.58;;;103.00;2227.20;;;;;;5071574;28;20360;-67
2023/12/28 01:36:29;;;;;;;23.35;15.18;;;102.90;2227.20;;;;;;5071806;28;20379;-62
2023/12/28 01:38:55;;;;;;;20.80;14.13;;;102.80;2227.20;;;;;;5071227;28;20380;-53
2023/12/28 01:41:21;;;;;;;24.20;13.57;;;102.80;2227.20;;;;;;5071783;28;20107;-53
2023/12/28 01:43:47;;;;;;;25.08;16.80;;;102.70;2227.20;;;;;;5071885;28;20111;-68
2023/12/28 01:46:18;;;;;;;27.20;16.67;;;102.80;2227.20;;;;;;5071597;28;20466;-54
2023/12/28 01:48:46;;;;;;;24.35;13.93;;;102.80;2227.20;;;;;;5071314;28;20029;-53
2023/12/28 01:51:14;;;;;;;31.10;17.65;;;102.90;2227.20;;;;;;5071664;28;20025;-54
2023/12/28 01:53:41;;;;;;;33.67;18.38;;;102.90;2227.20;;;;;;5071521;28;20418;-54
2023/12/28 01:56:07;;;;;;;30.25;17.83;;;103.00;2227.20;;;;;;5071509;28;20446;-53
2023/12/28 01:58:35;;;;;;;32.30;18.42;;;103.00;2227.20;;;;;;5071254;28;20055;-53
2023/12/28 02:01:01;;;;;;;48.20;30.05;;;103.10;2227.20;;;;;;5071071;28;20025;-54
2023/12/28 02:03:28;;;;;;;35.17;21.25;;;103.10;2227.20;;;;;;5071014;28;20407;-57
2023/12/28 02:05:54;;;;;;;24.58;15.70;;;103.10;2227.20;;;;;;5071330;28;20017;-53
2023/12/28 02:08:20;;;;;;;24.88;15.73;;;103.10;2227.20;;;;;;5070796;28;20028;-54
2023/12/28 02:10:46;;;;;;;21.98;15.38;;;103.10;2227.20;;;;;;5071047;28;20035;-53
2023/12/28 02:13:12;;;;;;;18.70;12.50;;;103.10;2227.20;;;;;;5070979;28;20029;-54
2023/12/28 02:15:37;;;;;;;23.65;19.20;;;103.30;2227.20;;;;;;5070940;28;20028;-53
2023/12/28 02:18:19;;;;;;;15.10;9.98;;;103.30;2227.20;;;;;;5069497;28;20037;-74
2023/12/28 02:20:47;;;;;;;20.00;12.93;;;128.00;2252.80;;;;;;5070849;28;20503;-53
2023/12/28 02:23:12;;;;;;;26.20;16.30;;;103.30;2227.20;;;;;;5070761;28;20035;-53
2023/12/28 02:25:38;;;;;;;42.10;23.58;;;103.20;2227.20;;;;;;5070805;28;20367;-69
2023/12/28 02:28:04;;;;;;;23.65;14.38;;;103.20;2227.20;;;;;;5070516;28;20037;-71
2023/12/28 02:30:30;;;;;;;15.50;10.88;;;103.20;2227.20;;;;;;5070661;28;20021;-54
2023/12/28 02:33:17;;;;;;;18.98;12.73;;;103.10;2227.20;;;;;;5070479;28;20432;-54
2023/12/28 02:35:49;;;;;;;32.13;22.20;;;103.00;2227.20;;;;;;5060565;28;20379;-53
2023/12/28 02:38:17;;;;;;;16.20;11.57;;;103.00;2227.20;;;;;;5070149;28;20037;-56
2023/12/28 02:40:44;;;;;;;20.00;14.55;;;103.10;2227.20;;;;;;5070371;28;20028;-53
2023/12/28 02:43:10;;;;;;;23.27;14.38;;;103.10;2227.20;;;;;;5070319;28;20696;-54
2023/12/28 02:45:37;;;;;;;22.15;13.68;;;102.90;2227.20;;;;;;5070378;28;20528;-59
2023/12/28 02:48:04;;;;;;;18.75;12.35;;;102.90;2227.20;;;;;;5069977;28;20021;-54
2023/12/28 02:50:30;;;;;;;15.70;10.77;;;103.00;2227.20;;;;;;5070229;28;20103;-54
2023/12/28 02:52:57;;;;;;;42.05;22.77;;;103.10;2227.20;;;;;;5069995;28;20021;-54
2023/12/28 02:55:23;;;;;;;18.23;12.95;;;103.10;2227.20;;;;;;5070065;28;20386;-69
2023/12/28 02:57:50;;;;;;;17.10;10.10;;;103.20;2227.20;;;;;;5069833;28;20107;-54
2023/12/28 03:00:16;;;;;;;21.55;12.05;;;103.10;2227.20;;;;;;5070478;28;20032;-54
2023/12/28 03:02:42;;;;;;;21.77;13.50;;;103.10;2227.20;;;;;;5069491;28;20471;-53
2023/12/28 03:05:09;;;;;;;33.65;17.65;;;103.10;2227.20;;;;;;5070247;28;20110;-53
2023/12/28 03:07:35;;;;;;;64.03;36.00;;;103.00;2227.20;;;;;;5069378;28;20017;-54
2023/12/28 03:10:02;;;;;;;25.13;16.92;;;103.00;2227.20;;;;;;5069589;28;20039;-54
2023/12/28 03:12:29;;;;;;;24.52;12.35;;;102.90;2227.20;;;;;;5071053;28;20025;-55
2023/12/28 03:14:55;;;;;;;24.85;16.83;;;102.80;2227.20;;;;;;5069886;28;20048;-53
2023/12/28 03:17:21;;;;;;;17.10;11.40;;;102.80;2227.20;;;;;;5069343;28;20105;-54
2023/12/28 03:19:46;;;;;;;18.27;11.65;;;102.80;2227.20;;;;;;5069569;28;20060;-53
2023/12/28 03:22:12;;;;;;;18.15;11.73;;;102.80;2227.20;;;;;;5074095;28;20023;-53
2023/12/28 03:24:38;;;;;;;16.90;11.45;;;102.90;2227.20;;;;;;5078367;28;20103;-53
2023/12/28 03:27:05;;;;;;;18.33;10.95;;;102.90;2227.20;;;;;;5069435;28;20028;-53
2023/12/28 03:29:31;;;;;;;16.08;9.32;;;103.10;2227.20;;;;;;5069106;28;20060;-53
2023/12/28 03:31:57;;;;;;;17.10;10.73;;;103.20;2227.20;;;;;;5069472;28;20401;-53
2023/12/28 03:34:23;;;;;;;28.05;15.98;;;103.20;2227.20;;;;;;5069456;28;20017;-55
2023/12/28 03:36:49;;;;;;;25.33;11.82;;;103.10;2227.20;;;;;;5051203;28;20363;-73
2023/12/28 03:39:15;;;;;;;14.77;10.25;;;103.00;2227.20;;;;;;5069385;28;20114;-67
2023/12/28 03:41:41;;;;;;;20.17;12.48;;;103.00;2227.20;;;;;;5069356;28;20017;-54
2023/12/28 03:44:07;;;;;;;20.33;9.88;;;103.10;2227.20;;;;;;5069426;28;20099;-53
2023/12/28 03:46:33;;;;;;;19.77;12.15;;;103.10;2227.20;;;;;;5069256;28;20079;-53
2023/12/28 03:48:58;;;;;;;21.52;11.68;;;103.00;2227.20;;;;;;5069116;28;20025;-70
2023/12/28 03:51:24;;;;;;;19.75;10.75;;;103.00;2227.20;;;;;;5074834;28;20367;-53
2023/12/28 03:53:50;;;;;;;20.88;11.30;;;103.00;2227.20;;;;;;5077611;28;20021;-53
2023/12/28 03:56:23;;;;;;;29.15;12.13;;;102.90;2227.20;;;;;;5069308;28;20085;-54
2023/12/28 03:58:50;;;;;;;22.38;13.05;;;102.80;2227.20;;;;;;5069117;28;20039;-53
2023/12/28 04:01:20;;;;;;;17.42;11.23;;;102.90;2227.20;;;;;;5069528;28;20025;-54
2023/12/28 04:03:46;;;;;;;24.58;15.88;;;102.90;2227.20;;;;;;5069161;28;20034;-53
2023/12/28 04:06:12;;;;;;;18.23;12.07;;;102.90;2227.20;;;;;;5069032;28;20021;-54
2023/12/28 04:08:39;;;;;;;13.10;9.02;;;103.00;2227.20;;;;;;5068836;28;20044;-53
2023/12/28 04:11:05;;;;;;;18.02;9.50;;;103.10;2227.20;;;;;;5068897;28;20035;-70
2023/12/28 04:13:30;;;;;;;17.48;10.93;;;103.10;2227.20;;;;;;5068923;28;20107;-54
2023/12/28 04:15:56;;;;;;;18.90;11.13;;;103.10;2227.20;;;;;;5069374;28;20017;-53
2023/12/28 04:18:22;;;;;;;14.00;9.02;;;103.10;2227.20;;;;;;5050212;28;20044;-52
2023/12/28 04:20:48;;;;;;;13.88;9.52;;;103.00;2227.20;;;;;;5069041;28;20012;-53
2023/12/28 04:23:14;;;;;;;13.65;8.50;;;103.10;2227.20;;;;;;5068990;28;20024;-53
2023/12/28 04:25:40;;;;;;;18.80;12.38;;;103.10;2227.20;;;;;;5068784;28;20028;-54
2023/12/28 04:28:06;;;;;;;20.30;12.43;;;103.10;2227.20;;;;;;5068884;28;20032;-55
2023/12/28 04:30:32;;;;;;;24.65;15.65;;;103.20;2227.20;;;;;;5068959;28;20039;-53
2023/12/28 04:32:58;;;;;;;23.85;14.38;;;103.20;2227.20;;;;;;5069161;28;20111;-53
2023/12/28 04:35:24;;;;;;;14.05;9.95;;;103.20;2227.20;;;;;;5050737;28;20459;-52
2023/12/28 04:37:49;;;;;;;15.70;9.38;;;103.10;2227.20;;;;;;5068574;28;20040;-54
2023/12/28 04:40:16;;;;;;;14.88;9.57;;;103.10;2227.20;;;;;;5070238;28;20122;-53
2023/12/28 04:42:43;;;;;;;17.27;11.13;;;103.10;2227.20;;;;;;5072700;28;20362;-53
2023/12/28 04:45:10;;;;;;;20.80;12.88;;;103.20;2227.20;;;;;;5072922;28;20031;-54
2023/12/28 04:47:36;;;;;;;19.65;12.18;;;103.10;2227.20;;;;;;5072452;28;20047;-54
2023/12/28 04:50:03;;;;;;;15.55;8.35;;;103.10;2227.20;;;;;;5072773;28;20091;-66
2023/12/28 04:52:29;;;;;;;18.60;10.63;;;103.10;2227.20;;;;;;5072698;28;20021;-54
2023/12/28 04:54:55;;;;;;;15.25;9.25;;;103.10;2227.20;;;;;;5072613;28;20050;-53
2023/12/28 04:57:20;;;;;;;14.93;9.60;;;103.00;2227.20;;;;;;5072249;28;20060;-54
2023/12/28 04:59:46;;;;;;;13.93;9.38;;;103.10;2227.20;;;;;;5072464;28;20028;-53
2023/12/28 05:02:12;;;;;;;14.48;10.63;;;103.20;2227.20;;;;;;5072121;28;20021;-54
2023/12/28 05:04:40;;;;;;;13.85;8.27;;;103.10;2227.20;;;;;;5072678;28;20016;-53
2023/12/28 05:07:06;;;;;;;14.90;8.57;;;103.10;2227.20;;;;;;5072164;28;20433;-66
2023/12/28 05:09:32;;;;;;;15.20;9.38;;;103.10;2227.20;;;;;;5072063;28;20115;-53
2023/12/28 05:11:58;;;;;;;18.17;12.30;;;103.10;2227.20;;;;;;5072144;28;20035;-59
2023/12/28 05:14:23;;;;;;;14.48;9.65;;;103.10;2227.20;;;;;;5072172;28;20364;-53
2023/12/28 05:16:49;;;;;;;16.67;10.18;;;103.10;2227.20;;;;;;5072384;28;20037;-53
2023/12/28 05:19:15;;;;;;;18.05;10.65;;;103.10;2227.20;;;;;;5071972;28;20475;-53
2023/12/28 05:21:41;;;;;;;16.38;10.45;;;103.10;2227.20;;;;;;5071869;28;20029;-54
2023/12/28 05:24:07;;;;;;;16.90;10.70;;;103.10;2227.20;;;;;;5072125;28;20028;-63
2023/12/28 05:26:33;;;;;;;18.45;12.52;;;103.00;2227.20;;;;;;5071614;28;20082;-53
2023/12/28 05:28:58;;;;;;;15.68;11.15;;;102.90;2227.20;;;;;;5072032;28;20039;-61
2023/12/28 05:31:24;;;;;;;18.50;10.52;;;102.80;2227.20;;;;;;5071772;28;20020;-53
2023/12/28 05:33:50;;;;;;;17.73;10.02;;;102.90;2227.20;;;;;;5071237;28;20028;-54
2023/12/28 05:36:16;;;;;;;17.20;10.23;;;102.90;2227.20;;;;;;5071857;28;20039;-53
2023/12/28 05:38:42;;;;;;;28.15;15.90;;;102.90;2227.20;;;;;;5070943;28;20364;-54
2023/12/28 05:41:10;;;;;;;21.08;11.65;;;102.90;2227.20;;;;;;5071924;28;20070;-53
2023/12/28 05:43:36;;;;;;;20.38;10.20;;;102.90;2227.20;;;;;;5067931;28;20413;-54
2023/12/28 05:46:02;;;;;;;21.52;12.75;;;102.80;2227.20;;;;;;5071503;28;20103;-53
2023/12/28 05:48:27;;;;;;;21.45;13.13;;;102.80;2227.20;;;;;;5073309;28;20047;-59
2023/12/28 05:50:53;;;;;;;18.75;12.50;;;102.80;2227.20;;;;;;5073468;28;20058;-52
2023/12/28 05:53:19;;;;;;;29.45;15.57;;;102.80;2227.20;;;;;;5071292;28;20024;-53
2023/12/28 05:55:45;;;;;;;40.42;19.25;;;102.80;2227.20;;;;;;5071489;28;20028;-53
2023/12/28 05:58:11;;;;;;;28.02;16.00;;;102.80;2227.20;;;;;;5071282;28;20589;-54
2023/12/28 06:00:38;;;;;;;41.38;21.92;;;102.90;2227.20;;;;;;5071279;28;20039;-53
2023/12/28 06:03:04;;;;;;;75.47;38.58;;;102.90;2227.20;;;;;;5071069;28;20033;-53
2023/12/28 06:05:30;;;;;;;295.42;146.30;;;102.90;2227.20;;;;;;5070902;28;20530;-54
2023/12/28 06:07:56;;;;;;;38.08;22.13;;;102.90;2227.20;;;;;;5071013;28;20104;-54
2023/12/28 06:10:22;;;;;;;21.10;10.52;;;102.80;2227.20;;;;;;5071501;28;20029;-54
2023/12/28 06:12:48;;;;;;;20.13;12.93;;;102.90;2227.20;;;;;;5071382;28;20154;-53
2023/12/28 06:15:13;;;;;;;18.60;10.77;;;102.90;2227.20;;;;;;5071006;28;20052;-53
2023/12/28 06:17:39;;;;;;;26.33;15.98;;;103.00;2227.20;;;;;;5071091;28;20119;-53
2023/12/28 06:20:06;;;;;;;20.23;13.82;;;103.00;2227.20;;;;;;5070907;28;20031;-53
2023/12/28 06:22:32;;;;;;;18.15;10.98;;;102.90;2227.20;;;;;;5070930;28;20078;-59
2023/12/28 06:24:57;;;;;;;12.63;7.95;;;102.80;2227.20;;;;;;5070905;28;20029;-54
2023/12/28 06:27:26;;;;;;;10.27;7.32;;;102.80;2227.20;;;;;;5070838;28;20032;-53
2023/12/28 06:29:52;;;;;;;13.32;7.93;;;102.80;2227.20;;;;;;5070623;28;20036;-54
2023/12/28 06:32:17;;;;;;;13.02;8.23;;;102.90;2227.20;;;;;;5070584;28;20033;-53
2023/12/28 06:34:43;;;;;;;17.63;10.63;;;102.90;2227.20;;;;;;5070348;28;20109;-53
2023/12/28 06:37:09;;;;;;;22.27;14.43;;;102.80;2227.20;;;;;;5070420;28;20063;-53
2023/12/28 06:39:34;;;;;;;21.95;13.20;;;102.50;2227.20;;;;;;5066986;28;20059;-62
2023/12/28 06:42:00;;;;;;;20.23;13.40;;;102.40;2227.20;;;;;;5077001;28;20024;-56
2023/12/28 06:44:26;;;;;;;23.75;15.25;;;102.40;2227.20;;;;;;5077215;28;20114;-54
2023/12/28 06:46:52;;;;;;;59.47;33.83;;;102.50;2227.20;;;;;;5070176;28;20052;-62
2023/12/28 06:49:17;;;;;;;117.65;65.72;;;102.70;2227.20;;;;;;5070056;28;20029;-62
2023/12/28 06:51:45;;;;;;;103.68;59.38;;;103.00;2227.20;;;;;;5070355;28;20421;-64
2023/12/28 06:54:12;;;;;;;332.75;200.43;;;103.10;2227.20;;;;;;5069973;28;20024;-69
2023/12/28 06:56:37;;;;;;;65.45;39.20;;;103.20;2227.20;;;;;;5070321;28;20477;-63
2023/12/28 06:59:03;;;;;;;28.88;13.68;;;103.20;2227.20;;;;;;5069772;28;20032;-63
2023/12/28 07:01:29;;;;;;;51.97;25.50;;;103.20;2227.20;;;;;;5070040;28;20017;-67
2023/12/28 07:03:54;;;;;;;43.70;25.23;;;103.30;2227.20;;;;;;5069203;28;20028;-62
2023/12/28 07:06:20;;;;;;;88.78;50.00;;;128.20;2252.80;;;;;;5069890;28;20055;-66
2023/12/28 07:08:46;;;;;;;98.00;58.50;;;128.40;2252.80;;;;;;5069511;28;20447;-62
2023/12/28 07:11:12;;;;;;;62.40;41.00;;;128.50;2252.80;;;;;;5069821;28;20028;-62
2023/12/28 07:13:38;;;;;;;39.92;23.50;;;128.50;2252.80;;;;;;5069900;28;20384;-62
2023/12/28 07:16:04;;;;;;;26.52;16.58;;;128.40;2252.80;;;;;;5069663;28;20071;-65
2023/12/28 07:18:30;;;;;;;29.33;20.20;;;128.40;2252.80;;;;;;5069595;28;20029;-63
2023/12/28 07:20:56;;;;;;;42.42;24.58;;;128.40;2252.80;;;;;;5070047;28;20020;-63
2023/12/28 07:23:21;;;;;;;37.35;25.15;;;128.10;2252.80;;;;;;5061017;28;20033;-67
2023/12/28 07:25:47;;;;;;;20.70;15.10;;;128.10;2252.80;;;;;;5065312;28;20031;-66
2023/12/28 07:28:13;;;;;;;21.88;13.93;;;128.40;2252.80;;;;;;5070359;28;20127;-68
2023/12/28 07:30:39;;;;;;;22.17;16.48;;;128.40;2252.80;;;;;;5077717;28;20533;-68
2023/12/28 07:33:05;;;;;;;25.60;16.85;;;128.20;2252.80;;;;;;5073052;28;20036;-65
2023/12/28 07:35:31;;;;;;;23.33;16.02;;;128.40;2252.80;;;;;;5074913;28;20077;-65
2023/12/28 07:37:57;;;;;;;24.05;15.40;;;128.40;2252.80;;;;;;5076288;28;20085;-63
2023/12/28 07:40:22;;;;;;;22.42;13.68;;;128.50;2252.80;;;;;;5075540;28;20033;-62
2023/12/28 07:42:48;;;;;;;22.52;15.07;;;128.60;2252.80;;;;;;5081138;28;20028;-67
2023/12/28 07:45:14;;;;;;;26.08;15.98;;;128.70;2252.80;;;;;;5077803;28;20661;-62
2023/12/28 07:47:40;;;;;;;23.58;16.38;;;128.70;2252.80;;;;;;5074236;28;20467;-66
2023/12/28 07:50:06;;;;;;;28.58;17.13;;;128.70;2252.80;;;;;;5069737;28;20077;-62
2023/12/28 07:52:32;;;;;;;25.13;17.80;;;128.70;2252.80;;;;;;5069403;28;20021;-70
2023/12/28 07:54:59;;;;;;;32.92;20.70;;;128.80;2252.80;;;;;;5069443;28;20364;-62
2023/12/28 07:57:24;;;;;;;48.58;28.27;;;128.90;2252.80;;;;;;5069412;28;20103;-69
2023/12/28 07:59:50;;;;;;;48.22;29.65;;;153.60;2252.80;;;;;;5069460;28;20055;-62
2023/12/28 08:02:16;;;;;;;58.53;39.03;;;153.80;2252.80;;;;;;5069313;28;20119;-62
2023/12/28 08:04:41;;;;;;;62.78;40.13;;;154.00;2252.80;;;;;;5069487;28;20063;-62
2023/12/28 08:07:08;;;;;;;31.40;19.15;;;154.10;2252.80;;;;;;5069154;28;20028;-69
2023/12/28 08:09:35;;;;;;;33.35;17.88;;;154.20;2252.80;;;;;;5068870;28;20066;-62
2023/12/28 08:12:02;;;;;;;28.60;16.88;;;154.20;2252.80;;;;;;5070705;28;20079;-62
2023/12/28 08:14:28;;;;;;;24.23;15.48;;;154.10;2252.80;;;;;;5089121;28;20060;-69
2023/12/28 08:16:53;;;;;;;25.75;16.40;;;154.20;2252.80;;;;;;5091752;28;20431;-63
2023/12/28 08:19:19;;;;;;;31.05;18.20;;;154.30;2252.80;;;;;;5092055;28;20032;-69
2023/12/28 08:21:45;;;;;;;36.65;24.48;;;154.50;2252.80;;;;;;5078051;28;20035;-61
2023/12/28 08:24:11;;;;;;;31.80;18.60;;;179.20;2252.80;;;;;;5073179;28;20123;-61
2023/12/28 08:26:36;;;;;;;24.25;16.58;;;179.70;2252.80;;;;;;5072932;28;20111;-69
2023/12/28 08:29:02;;;;;;;27.63;20.42;;;230.40;2252.80;;;;;;5073497;28;20051;-62
2023/12/28 08:31:29;;;;;;;95.72;66.40;;;230.70;2252.80;;;;;;5074091;28;20032;-68
2023/12/28 08:33:56;;;;;;;228.50;157.10;;;230.40;2252.80;;;;;;5077939;28;20028;-63
2023/12/28 08:36:22;;;;;;;271.48;199.43;;;205.60;2252.80;;;;;;5073213;28;20028;-62
2023/12/28 08:38:47;;;;;;;281.67;200.32;;;205.40;2252.80;;;;;;5072379;28;20048;-69
2023/12/28 08:41:21;;;;;;;254.95;175.85;;;205.40;2252.80;;;;;;5072767;28;20383;-70
2023/12/28 08:43:47;;;;;;;126.25;91.07;;;205.70;2252.80;;;;;;5072744;28;20033;-62
2023/12/28 08:46:14;;;;;;;86.55;60.45;;;256.50;2252.80;;;;;;5072572;28;20021;-62
2023/12/28 08:48:41;;;;;;;35.08;24.88;;;307.70;2304.00;;;;;;5072200;28;20116;-63
2023/12/28 08:51:07;;;;;;;39.25;24.40;;;333.70;2329.60;;;;;;5072573;28;20048;-63
2023/12/28 08:53:32;;;;;;;50.60;29.08;;;359.10;2252.80;;;;;;5072219;28;20066;-65
2023/12/28 08:55:58;;;;;;;72.55;51.53;;;384.90;2124.80;;;;;;5072462;28;20031;-63
2023/12/28 08:58:24;;;;;;;50.22;38.38;;;409.70;2099.20;;;;;;5072339;28;20067;-62
2023/12/28 09:00:50;;;;;;;53.97;45.22;;;435.60;1996.80;;;;;;5072720;28;20442;-71
2023/12/28 09:03:15;;;;;;;62.85;51.10;;;460.80;1971.20;;;;;;5072063;28;20805;-71
2023/12/28 09:05:41;;;;;;;88.57;69.60;;;486.50;1868.80;;;;;;5054646;28;20029;-62
2023/12/28 09:08:07;;;;;;;89.75;76.70;;;512.50;1766.40;;;;;;5072079;28;20035;-71
2023/12/28 09:10:33;;;;;;;149.50;81.57;;;512.60;1740.80;;;;;;5071873;28;20029;-63
2023/12/28 09:12:59;;;;;;;40.50;33.85;;;537.60;1715.20;;;;;;5072156;28;20025;-63
2023/12/28 09:15:25;;;;;;;71.47;56.50;;;538.50;1664.00;;;;;;5072043;28;20021;-63
2023/12/28 09:17:50;;;;;;;67.30;45.42;;;538.50;1664.00;;;;;;5071860;28;20035;-65
2023/12/28 09:20:16;;;;;;;69.53;55.83;;;563.50;1638.40;;;;;;5072018;28;20442;-63
2023/12/28 09:22:42;;;;;;;38.22;31.58;;;563.70;1612.80;;;;;;5071818;28;20032;-67
2023/12/28 09:25:08;;;;;;;72.53;58.60;;;538.10;1612.80;;;;;;5071896;28;20020;-62
2023/12/28 09:27:34;;;;;;;197.80;167.70;;;486.90;1740.80;;;;;;5071331;28;20020;-71
2023/12/28 09:29:59;;;;;;;68.72;55.33;;;461.50;1792.00;;;;;;5071796;28;20537;-70
2023/12/28 09:32:26;;;;;;;88.85;70.65;;;435.40;1817.60;;;;;;5071580;28;20391;-62
2023/12/28 09:34:52;;;;;;;218.68;161.75;;;409.70;1920.00;;;;;;5071579;28;20158;-62
2023/12/28 09:37:17;;;;;;;168.50;121.50;;;384.10;1996.80;;;;;;5071784;28;20488;-61
2023/12/28 09:39:44;;;;;;;94.85;72.97;;;358.90;2048.00;;;;;;5070365;28;20049;-74
2023/12/28 09:42:29;;;;;;;58.22;45.75;;;358.70;2048.00;;;;;;5071092;28;20074;-67
2023/12/28 09:44:55;;;;;;;73.00;51.15;;;333.40;2099.20;;;;;;5071118;28;20027;-73
2023/12/28 09:47:20;;;;;;;130.45;82.32;;;333.00;2150.40;;;;;;5071011;28;20024;-74
2023/12/28 09:49:47;;;;;;;155.75;102.68;;;332.80;2176.00;;;;;;5070830;28;20082;-61
2023/12/28 09:52:13;;;;;;;204.68;116.05;;;308.00;2201.60;;;;;;5071007;28;20052;-72
2023/12/28 09:54:39;;;;;;;223.77;128.07;;;307.80;2201.60;;;;;;5070371;28;20451;-62
2023/12/28 09:57:05;;;;;;;179.55;105.25;;;307.90;2201.60;;;;;;5070950;28;20111;-66
2023/12/28 09:59:32;;;;;;;161.90;109.88;;;307.70;2252.80;;;;;;5070873;28;20035;-61
2023/12/28 10:02:00;;;;;;;151.73;102.53;;;307.80;2252.80;;;;;;5070779;28;20552;-72
2023/12/28 10:04:28;;;;;;;190.45;131.63;;;307.80;2278.40;;;;;;5070437;28;20028;-74
2023/12/28 10:06:54;;;;;;;103.03;77.28;;;307.80;2278.40;;;;;;5070825;28;20037;-75
2023/12/28 10:09:21;;;;;;;99.82;71.82;;;307.80;2278.40;;;;;;5070376;28;20041;-61
2023/12/28 10:11:47;;;;;;;107.45;77.32;;;307.80;2278.40;;;;;;5070837;28;20032;-73
2023/12/28 10:14:14;;;;;;;96.25;71.45;;;307.70;2304.00;;;;;;5070336;28;20082;-75
2023/12/28 10:16:43;;;;;;;90.07;68.15;;;307.80;2304.00;;;;;;5070539;28;20027;-71
2023/12/28 10:19:09;;;;;;;93.22;67.43;;;307.80;2304.00;;;;;;5070107;28;20032;-73
2023/12/28 10:21:34;;;;;;;105.82;73.18;;;307.80;2304.00;;;;;;5070127;28;20070;-61
2023/12/28 10:24:01;;;;;;;98.43;71.38;;;307.80;2304.00;;;;;;5069946;28;20091;-62
2023/12/28 10:26:28;;;;;;;105.68;75.38;;;307.80;2304.00;;;;;;5070416;28;20028;-62
2023/12/28 10:29:02;;;;;;;114.32;83.15;;;307.90;2304.00;;;;;;5070607;28;20017;-75
2023/12/28 10:31:28;;;;;;;133.98;96.03;;;307.90;2304.00;;;;;;5069792;28;20103;-73
2023/12/28 10:33:59;;;;;;;132.50;96.28;;;307.80;2304.00;;;;;;5070126;28;20104;-75
2023/12/28 10:36:27;;;;;;;138.15;98.63;;;307.90;2304.00;;;;;;5070017;28;20021;-61
2023/12/28 10:38:54;;;;;;;96.13;70.95;;;307.90;2304.00;;;;;;5068405;28;20053;-75
2023/12/28 10:41:21;;;;;;;108.22;77.85;;;307.80;2304.00;;;;;;5070287;28;20546;-75
2023/12/28 10:44:02;;;;;;;102.78;71.78;;;307.90;2304.00;;;;;;5070035;28;20032;-74
2023/12/28 10:46:32;;;;;;;105.43;76.38;;;308.00;2304.00;;;;;;5070006;28;20542;-73
2023/12/28 10:49:08;;;;;;;71.70;50.90;;;308.00;2304.00;;;;;;5069480;28;20479;-61
2023/12/28 10:51:36;;;;;;;96.07;66.18;;;308.10;2304.00;;;;;;5057030;28;20021;-75
2023/12/28 10:54:21;;;;;;;91.22;63.58;;;308.10;2304.00;;;;;;5069578;28;20099;-75
2023/12/28 10:56:52;;;;;;;97.18;69.65;;;332.80;2329.60;;;;;;5069875;28;20028;-72
2023/12/28 10:59:37;;;;;;;93.20;68.82;;;332.90;2329.60;;;;;;5069562;28;20033;-75
2023/12/28 11:02:03;;;;;;;94.95;69.60;;;332.90;2329.60;;;;;;5069703;28;20384;-69
2023/12/28 11:04:42;;;;;;;94.90;64.57;;;333.00;2329.60;;;;;;5069710;28;20047;-74
2023/12/28 11:07:11;;;;;;;85.30;56.60;;;333.00;2329.60;;;;;;5069323;28;20066;-73
2023/12/28 11:09:38;;;;;;;79.28;56.42;;;333.00;2329.60;;;;;;5070094;28;20032;-66
2023/12/28 11:12:07;;;;;;;80.93;58.17;;;333.10;2329.60;;;;;;5069198;28;20021;-72
2023/12/28 11:14:34;;;;;;;75.03;51.90;;;333.10;2329.60;;;;;;5069086;28;20020;-74
2023/12/28 11:17:01;;;;;;;66.10;43.50;;;333.10;2329.60;;;;;;5069414;28;20052;-70
2023/12/28 11:19:31;;;;;;;64.07;46.65;;;333.20;2329.60;;;;;;5069440;28;20574;-70
2023/12/28 11:21:59;;;;;;;78.10;48.25;;;333.20;2329.60;;;;;;5069061;28;20121;-74
2023/12/28 11:24:30;;;;;;;70.05;47.30;;;333.30;2329.60;;;;;;5069188;28;20470;-62
2023/12/28 11:26:56;;;;;;;60.10;42.38;;;333.40;2329.60;;;;;;5069429;28;20138;-64
2023/12/28 11:29:26;;;;;;;72.43;44.25;;;333.50;2329.60;;;;;;5068742;28;20028;-72
2023/12/28 11:31:53;;;;;;;71.95;46.25;;;333.50;2329.60;;;;;;5069176;28;20024;-62
2023/12/28 11:34:18;;;;;;;105.68;60.47;;;333.50;2329.60;;;;;;5069419;28;20040;-73
2023/12/28 11:36:49;;;;;;;102.82;58.30;;;333.50;2329.60;;;;;;5069105;28;20021;-61
2023/12/28 11:39:25;;;;;;;80.30;50.35;;;333.60;2329.60;;;;;;5069026;28;20052;-70
2023/12/28 11:41:51;;;;;;;84.55;50.65;;;333.60;2329.60;;;;;;5069416;28;20475;-61
2023/12/28 11:44:17;;;;;;;58.45;41.40;;;333.70;2329.60;;;;;;5069194;28;20040;-74
2023/12/28 11:46:42;;;;;;;93.32;53.30;;;333.60;2329.60;;;;;;5069268;28;20020;-69
2023/12/28 11:49:09;;;;;;;100.45;55.70;;;333.70;2329.60;;;;;;5069263;28;20039;-72
2023/12/28 11:51:39;;;;;;;57.85;40.08;;;358.40;2329.60;;;;;;5056111;28;20141;-61
2023/12/28 11:54:06;;;;;;;113.05;61.10;;;358.40;2329.60;;;;;;5068861;28;20074;-67
2023/12/28 11:56:33;;;;;;;63.53;42.22;;;358.50;2329.60;;;;;;5068972;28;20020;-61